sensor_id;sensor_type;location;lat;lon;timestamp;temperature;humidity
22974;DHT22;11653;50.848;4.584;2023-02-08T00:01:24;-0.60;99.90
22974;DHT22;11653;50.848;4.584;2023-02-08T00:03:50;-0.70;99.90
22974;DHT22;11653;50.848;4.584;2023-02-08T00:06:16;-0.70;99.90
22974;DHT22;11653;50.848;4.584;2023-02-08T00:08:42;-0.70;99.90
22974;DHT22;11653;50.848;4.584;2023-02-08T00:11:08;-0.80;99.90
22974;DHT22;11653;50.848;4.584;2023-02-08T00:13:38;-0.70;99.90
22974;DHT22;11653;50.848;4.584;2023-02-08T00:16:05;-0.70;99.90
22974;DHT22;11653;50.848;4.584;2023-02-08T00:18:31;-0.80;99.90
22974;DHT22;11653;50.848;4.584;2023-02-08T00:20:56;-0.80;99.90
22974;DHT22;11653;50.848;4.584;2023-02-08T00:23:23;-0.80;99.90
22974;DHT22;11653;50.848;4.584;2023-02-08T00:25:49;-0.70;99.90
22974;DHT22;11653;50.848;4.584;2023-02-08T00:28:18;-0.80;99.90
22974;DHT22;11653;50.848;4.584;2023-02-08T00:30:43;-0.80;99.90
22974;DHT22;11653;50.848;4.584;2023-02-08T00:33:10;-0.90;99.90
22974;DHT22;11653;50.848;4.584;2023-02-08T00:35:36;-0.80;99.90
22974;DHT22;11653;50.848;4.584;2023-02-08T00:38:02;-0.90;99.90
22974;DHT22;11653;50.848;4.584;2023-02-08T00:40:28;-0.80;99.90
22974;DHT22;11653;50.848;4.584;2023-02-08T00:42:53;-0.90;99.90
22974;DHT22;11653;50.848;4.584;2023-02-08T00:45:19;-0.90;99.90
22974;DHT22;11653;50.848;4.584;2023-02-08T00:47:47;-0.90;99.90
22974;DHT22;11653;50.848;4.584;2023-02-08T00:50:13;-0.90;99.90
22974;DHT22;11653;50.848;4.584;2023-02-08T00:52:39;-0.90;99.90
22974;DHT22;11653;50.848;4.584;2023-02-08T00:55:08;-0.90;99.90
22974;DHT22;11653;50.848;4.584;2023-02-08T00:57:36;-0.90;99.90
22974;DHT22;11653;50.848;4.584;2023-02-08T01:00:03;-0.90;99.90
22974;DHT22;11653;50.848;4.584;2023-02-08T01:02:29;-0.90;99.90
22974;DHT22;11653;50.848;4.584;2023-02-08T01:04:54;-0.90;99.90
22974;DHT22;11653;50.848;4.584;2023-02-08T01:07:20;-0.90;99.90
22974;DHT22;11653;50.848;4.584;2023-02-08T01:09:46;-1.00;99.90
22974;DHT22;11653;50.848;4.584;2023-02-08T01:12:14;-1.00;99.90
22974;DHT22;11653;50.848;4.584;2023-02-08T01:14:47;-1.10;99.90
22974;DHT22;11653;50.848;4.584;2023-02-08T01:17:13;-1.10;99.90
22974;DHT22;11653;50.848;4.584;2023-02-08T01:19:41;-1.10;99.90
22974;DHT22;11653;50.848;4.584;2023-02-08T01:22:09;-1.00;99.90
22974;DHT22;11653;50.848;4.584;2023-02-08T01:24:37;-1.00;99.90
22974;DHT22;11653;50.848;4.584;2023-02-08T01:27:03;-1.10;99.90
22974;DHT22;11653;50.848;4.584;2023-02-08T01:29:31;-1.00;99.90
22974;DHT22;11653;50.848;4.584;2023-02-08T01:31:57;-1.10;99.90
22974;DHT22;11653;50.848;4.584;2023-02-08T01:34:23;-1.20;99.90
22974;DHT22;11653;50.848;4.584;2023-02-08T01:36:48;-1.20;99.90
22974;DHT22;11653;50.848;4.584;2023-02-08T01:39:14;-1.20;99.90
22974;DHT22;11653;50.848;4.584;2023-02-08T01:41:41;-1.20;99.90
22974;DHT22;11653;50.848;4.584;2023-02-08T01:46:41;-1.20;99.90
22974;DHT22;11653;50.848;4.584;2023-02-08T01:49:11;-1.30;99.90
22974;DHT22;11653;50.848;4.584;2023-02-08T01:51:42;-1.30;99.90
22974;DHT22;11653;50.848;4.584;2023-02-08T01:54:10;-1.30;99.90
22974;DHT22;11653;50.848;4.584;2023-02-08T01:56:42;-1.20;99.90
22974;DHT22;11653;50.848;4.584;2023-02-08T01:59:13;-1.20;99.90
22974;DHT22;11653;50.848;4.584;2023-02-08T02:01:42;-1.20;99.90
22974;DHT22;11653;50.848;4.584;2023-02-08T02:04:09;-1.30;99.90
22974;DHT22;11653;50.848;4.584;2023-02-08T02:06:43;-1.30;99.90
22974;DHT22;11653;50.848;4.584;2023-02-08T02:11:58;-1.30;99.90
22974;DHT22;11653;50.848;4.584;2023-02-08T02:14:25;-1.40;99.90
22974;DHT22;11653;50.848;4.584;2023-02-08T02:16:51;-1.40;99.90
22974;DHT22;11653;50.848;4.584;2023-02-08T02:36:12;-1.60;99.90
22974;DHT22;11653;50.848;4.584;2023-02-08T02:44:37;-1.50;99.90
22974;DHT22;11653;50.848;4.584;2023-02-08T02:47:10;-1.60;99.90
22974;DHT22;11653;50.848;4.584;2023-02-08T02:49:53;-1.60;99.90
22974;DHT22;11653;50.848;4.584;2023-02-08T02:55:22;-1.60;99.90
22974;DHT22;11653;50.848;4.584;2023-02-08T02:57:50;-1.60;99.90
22974;DHT22;11653;50.848;4.584;2023-02-08T03:00:21;-1.60;99.90
22974;DHT22;11653;50.848;4.584;2023-02-08T03:02:48;-1.70;99.90
22974;DHT22;11653;50.848;4.584;2023-02-08T03:05:13;-1.60;99.90
22974;DHT22;11653;50.848;4.584;2023-02-08T03:13:00;-1.70;99.90
22974;DHT22;11653;50.848;4.584;2023-02-08T03:27:30;-1.80;99.90
22974;DHT22;11653;50.848;4.584;2023-02-08T03:30:06;-1.70;99.90
22974;DHT22;11653;50.848;4.584;2023-02-08T03:32:39;-1.80;99.90
22974;DHT22;11653;50.848;4.584;2023-02-08T03:35:36;-1.80;99.90
22974;DHT22;11653;50.848;4.584;2023-02-08T03:38:14;-1.80;99.90
22974;DHT22;11653;50.848;4.584;2023-02-08T03:40:45;-1.80;99.90
22974;DHT22;11653;50.848;4.584;2023-02-08T03:43:19;-1.80;99.90
22974;DHT22;11653;50.848;4.584;2023-02-08T03:45:50;-1.70;99.90
22974;DHT22;11653;50.848;4.584;2023-02-08T03:48:19;-1.80;99.90
22974;DHT22;11653;50.848;4.584;2023-02-08T03:50:49;-1.80;99.90
22974;DHT22;11653;50.848;4.584;2023-02-08T03:53:19;-1.80;99.90
22974;DHT22;11653;50.848;4.584;2023-02-08T03:55:49;-1.90;99.90
22974;DHT22;11653;50.848;4.584;2023-02-08T03:58:30;-1.80;99.90
22974;DHT22;11653;50.848;4.584;2023-02-08T04:01:24;-1.90;99.90
22974;DHT22;11653;50.848;4.584;2023-02-08T04:03:52;-1.80;99.90
22974;DHT22;11653;50.848;4.584;2023-02-08T04:06:19;-1.80;99.90
22974;DHT22;11653;50.848;4.584;2023-02-08T04:08:46;-1.90;99.90
22974;DHT22;11653;50.848;4.584;2023-02-08T04:11:11;-1.90;99.90
22974;DHT22;11653;50.848;4.584;2023-02-08T04:13:37;-1.90;99.90
22974;DHT22;11653;50.848;4.584;2023-02-08T04:16:03;-1.90;99.90
22974;DHT22;11653;50.848;4.584;2023-02-08T04:18:28;-1.90;99.90
22974;DHT22;11653;50.848;4.584;2023-02-08T04:20:54;-2.00;99.90
22974;DHT22;11653;50.848;4.584;2023-02-08T04:23:20;-2.00;99.90
22974;DHT22;11653;50.848;4.584;2023-02-08T04:25:45;-1.90;99.90
22974;DHT22;11653;50.848;4.584;2023-02-08T04:28:11;-2.00;99.90
22974;DHT22;11653;50.848;4.584;2023-02-08T04:30:37;-2.00;99.90
22974;DHT22;11653;50.848;4.584;2023-02-08T04:33:02;-2.00;99.90
22974;DHT22;11653;50.848;4.584;2023-02-08T04:35:28;-2.10;99.90
22974;DHT22;11653;50.848;4.584;2023-02-08T04:37:54;-2.00;99.90
22974;DHT22;11653;50.848;4.584;2023-02-08T04:40:20;-2.10;99.90
22974;DHT22;11653;50.848;4.584;2023-02-08T04:42:45;-2.10;99.90
22974;DHT22;11653;50.848;4.584;2023-02-08T04:45:11;-2.00;99.90
22974;DHT22;11653;50.848;4.584;2023-02-08T04:47:37;-2.10;99.90
22974;DHT22;11653;50.848;4.584;2023-02-08T04:50:03;-2.00;99.90
22974;DHT22;11653;50.848;4.584;2023-02-08T04:52:29;-2.00;99.90
22974;DHT22;11653;50.848;4.584;2023-02-08T04:54:55;-2.00;99.90
22974;DHT22;11653;50.848;4.584;2023-02-08T04:57:20;-2.00;99.90
22974;DHT22;11653;50.848;4.584;2023-02-08T04:59:46;-2.10;99.90
22974;DHT22;11653;50.848;4.584;2023-02-08T05:02:12;-2.10;99.90
22974;DHT22;11653;50.848;4.584;2023-02-08T05:04:42;-2.10;99.90
22974;DHT22;11653;50.848;4.584;2023-02-08T05:07:08;-2.20;99.90
22974;DHT22;11653;50.848;4.584;2023-02-08T05:09:34;-2.20;99.90
22974;DHT22;11653;50.848;4.584;2023-02-08T05:11:59;-2.20;99.90
22974;DHT22;11653;50.848;4.584;2023-02-08T05:14:25;-2.30;99.90
22974;DHT22;11653;50.848;4.584;2023-02-08T05:16:50;-2.20;99.90
22974;DHT22;11653;50.848;4.584;2023-02-08T05:19:16;-2.20;99.90
22974;DHT22;11653;50.848;4.584;2023-02-08T05:21:42;-2.20;99.90
22974;DHT22;11653;50.848;4.584;2023-02-08T05:24:07;-2.30;99.90
22974;DHT22;11653;50.848;4.584;2023-02-08T05:26:37;-2.20;99.90
22974;DHT22;11653;50.848;4.584;2023-02-08T05:29:03;-2.20;99.90
22974;DHT22;11653;50.848;4.584;2023-02-08T05:31:29;-2.20;99.90
22974;DHT22;11653;50.848;4.584;2023-02-08T05:33:55;-2.20;99.90
22974;DHT22;11653;50.848;4.584;2023-02-08T05:36:21;-2.20;99.90
22974;DHT22;11653;50.848;4.584;2023-02-08T05:38:47;-2.20;99.90
22974;DHT22;11653;50.848;4.584;2023-02-08T05:41:13;-2.20;99.90
22974;DHT22;11653;50.848;4.584;2023-02-08T05:43:39;-2.20;99.90
22974;DHT22;11653;50.848;4.584;2023-02-08T05:46:04;-2.20;99.90
22974;DHT22;11653;50.848;4.584;2023-02-08T05:48:31;-2.30;99.90
22974;DHT22;11653;50.848;4.584;2023-02-08T05:50:57;-2.20;99.90
22974;DHT22;11653;50.848;4.584;2023-02-08T05:53:23;-2.30;99.90
22974;DHT22;11653;50.848;4.584;2023-02-08T05:55:49;-2.30;99.90
22974;DHT22;11653;50.848;4.584;2023-02-08T05:58:16;-2.20;99.90
22974;DHT22;11653;50.848;4.584;2023-02-08T06:00:42;-2.20;99.90
22974;DHT22;11653;50.848;4.584;2023-02-08T06:03:08;-2.30;99.90
22974;DHT22;11653;50.848;4.584;2023-02-08T06:05:36;-2.40;99.90
22974;DHT22;11653;50.848;4.584;2023-02-08T06:08:03;-2.20;99.90
22974;DHT22;11653;50.848;4.584;2023-02-08T06:10:28;-2.30;99.90
22974;DHT22;11653;50.848;4.584;2023-02-08T06:12:54;-2.30;99.90
22974;DHT22;11653;50.848;4.584;2023-02-08T06:15:20;-2.40;99.90
22974;DHT22;11653;50.848;4.584;2023-02-08T06:17:45;-2.40;99.90
22974;DHT22;11653;50.848;4.584;2023-02-08T06:20:11;-2.40;99.90
22974;DHT22;11653;50.848;4.584;2023-02-08T06:22:37;-2.30;99.90
22974;DHT22;11653;50.848;4.584;2023-02-08T06:25:03;-2.40;99.90
22974;DHT22;11653;50.848;4.584;2023-02-08T06:27:28;-2.40;99.90
22974;DHT22;11653;50.848;4.584;2023-02-08T06:29:54;-2.40;99.90
22974;DHT22;11653;50.848;4.584;2023-02-08T06:32:20;-2.40;99.90
22974;DHT22;11653;50.848;4.584;2023-02-08T06:34:45;-2.40;99.90
22974;DHT22;11653;50.848;4.584;2023-02-08T06:37:12;-2.30;99.90
22974;DHT22;11653;50.848;4.584;2023-02-08T06:39:43;-2.40;99.90
22974;DHT22;11653;50.848;4.584;2023-02-08T06:42:09;-2.30;99.90
22974;DHT22;11653;50.848;4.584;2023-02-08T06:44:35;-2.30;99.90
22974;DHT22;11653;50.848;4.584;2023-02-08T06:47:02;-2.30;99.90
22974;DHT22;11653;50.848;4.584;2023-02-08T06:49:28;-2.30;99.90
22974;DHT22;11653;50.848;4.584;2023-02-08T06:51:54;-2.30;99.90
22974;DHT22;11653;50.848;4.584;2023-02-08T06:54:20;-2.20;99.90
22974;DHT22;11653;50.848;4.584;2023-02-08T06:56:45;-2.40;99.90
22974;DHT22;11653;50.848;4.584;2023-02-08T06:59:11;-2.40;99.90
22974;DHT22;11653;50.848;4.584;2023-02-08T07:01:37;-2.40;99.90
22974;DHT22;11653;50.848;4.584;2023-02-08T07:04:03;-2.40;99.90
22974;DHT22;11653;50.848;4.584;2023-02-08T07:06:29;-2.40;99.90
22974;DHT22;11653;50.848;4.584;2023-02-08T07:08:55;-2.40;99.90
22974;DHT22;11653;50.848;4.584;2023-02-08T07:11:21;-2.40;99.90
22974;DHT22;11653;50.848;4.584;2023-02-08T07:13:48;-2.40;99.90
22974;DHT22;11653;50.848;4.584;2023-02-08T07:16:13;-2.50;99.90
22974;DHT22;11653;50.848;4.584;2023-02-08T07:18:39;-2.50;99.90
22974;DHT22;11653;50.848;4.584;2023-02-08T07:21:05;-2.30;99.90
22974;DHT22;11653;50.848;4.584;2023-02-08T07:23:31;-2.40;99.90
22974;DHT22;11653;50.848;4.584;2023-02-08T07:26:07;-2.30;99.90
22974;DHT22;11653;50.848;4.584;2023-02-08T07:28:34;-2.20;99.90
22974;DHT22;11653;50.848;4.584;2023-02-08T07:31:07;-2.20;99.90
22974;DHT22;11653;50.848;4.584;2023-02-08T07:33:34;-2.20;99.90
22974;DHT22;11653;50.848;4.584;2023-02-08T07:36:00;-2.30;99.90
22974;DHT22;11653;50.848;4.584;2023-02-08T07:38:26;-2.30;99.90
22974;DHT22;11653;50.848;4.584;2023-02-08T07:40:51;-2.10;99.90
22974;DHT22;11653;50.848;4.584;2023-02-08T07:43:24;-2.00;99.90
22974;DHT22;11653;50.848;4.584;2023-02-08T07:45:49;-1.90;99.90
22974;DHT22;11653;50.848;4.584;2023-02-08T07:48:15;-1.90;99.90
22974;DHT22;11653;50.848;4.584;2023-02-08T07:50:40;-1.40;99.90
22974;DHT22;11653;50.848;4.584;2023-02-08T07:53:06;-0.60;99.90
22974;DHT22;11653;50.848;4.584;2023-02-08T07:55:32;0.30;99.90
22974;DHT22;11653;50.848;4.584;2023-02-08T07:57:57;1.20;99.90
22974;DHT22;11653;50.848;4.584;2023-02-08T08:00:23;2.10;99.90
22974;DHT22;11653;50.848;4.584;2023-02-08T08:02:51;2.90;99.90
22974;DHT22;11653;50.848;4.584;2023-02-08T08:05:17;3.70;99.90
22974;DHT22;11653;50.848;4.584;2023-02-08T08:07:42;4.30;99.90
22974;DHT22;11653;50.848;4.584;2023-02-08T08:10:08;4.60;99.90
22974;DHT22;11653;50.848;4.584;2023-02-08T08:12:34;4.40;99.90
22974;DHT22;11653;50.848;4.584;2023-02-08T08:14:59;4.10;99.90
22974;DHT22;11653;50.848;4.584;2023-02-08T08:17:25;3.80;99.90
22974;DHT22;11653;50.848;4.584;2023-02-08T08:19:51;3.60;99.90
22974;DHT22;11653;50.848;4.584;2023-02-08T08:22:16;3.30;99.90
22974;DHT22;11653;50.848;4.584;2023-02-08T08:24:42;3.30;99.90
22974;DHT22;11653;50.848;4.584;2023-02-08T08:27:08;3.60;99.90
22974;DHT22;11653;50.848;4.584;2023-02-08T08:29:35;4.30;99.90
22974;DHT22;11653;50.848;4.584;2023-02-08T08:32:01;5.30;99.90
22974;DHT22;11653;50.848;4.584;2023-02-08T08:34:27;6.40;99.90
22974;DHT22;11653;50.848;4.584;2023-02-08T08:37:00;7.40;99.90
22974;DHT22;11653;50.848;4.584;2023-02-08T08:39:26;8.10;99.90
22974;DHT22;11653;50.848;4.584;2023-02-08T08:41:55;7.80;99.80
22974;DHT22;11653;50.848;4.584;2023-02-08T08:44:21;7.50;99.90
22974;DHT22;11653;50.848;4.584;2023-02-08T08:46:47;7.00;99.90
22974;DHT22;11653;50.848;4.584;2023-02-08T08:49:13;6.50;99.90
22974;DHT22;11653;50.848;4.584;2023-02-08T08:51:38;6.10;99.90
22974;DHT22;11653;50.848;4.584;2023-02-08T08:54:04;5.70;99.90
22974;DHT22;11653;50.848;4.584;2023-02-08T08:56:31;5.40;99.90
22974;DHT22;11653;50.848;4.584;2023-02-08T08:58:57;5.10;99.90
22974;DHT22;11653;50.848;4.584;2023-02-08T09:01:22;4.90;99.90
22974;DHT22;11653;50.848;4.584;2023-02-08T09:03:48;4.70;99.90
22974;DHT22;11653;50.848;4.584;2023-02-08T09:06:14;4.50;99.90
22974;DHT22;11653;50.848;4.584;2023-02-08T09:08:40;4.50;99.90
22974;DHT22;11653;50.848;4.584;2023-02-08T09:11:08;4.40;99.90
22974;DHT22;11653;50.848;4.584;2023-02-08T09:13:34;4.30;99.90
22974;DHT22;11653;50.848;4.584;2023-02-08T09:16:08;4.20;99.90
22974;DHT22;11653;50.848;4.584;2023-02-08T09:18:34;4.20;99.90
22974;DHT22;11653;50.848;4.584;2023-02-08T09:21:07;4.10;99.90
22974;DHT22;11653;50.848;4.584;2023-02-08T09:23:34;4.10;99.90
22974;DHT22;11653;50.848;4.584;2023-02-08T09:26:04;4.10;99.90
22974;DHT22;11653;50.848;4.584;2023-02-08T09:28:30;4.10;99.90
22974;DHT22;11653;50.848;4.584;2023-02-08T09:30:56;4.10;99.90
22974;DHT22;11653;50.848;4.584;2023-02-08T09:33:23;4.10;99.90
22974;DHT22;11653;50.848;4.584;2023-02-08T09:35:49;4.10;99.90
22974;DHT22;11653;50.848;4.584;2023-02-08T09:38:15;4.10;99.90
22974;DHT22;11653;50.848;4.584;2023-02-08T09:41:31;4.10;99.90
22974;DHT22;11653;50.848;4.584;2023-02-08T09:46:48;4.10;99.90
22974;DHT22;11653;50.848;4.584;2023-02-08T09:49:18;4.20;99.90
22974;DHT22;11653;50.848;4.584;2023-02-08T09:51:52;4.30;99.90
22974;DHT22;11653;50.848;4.584;2023-02-08T09:54:21;4.50;99.90
22974;DHT22;11653;50.848;4.584;2023-02-08T09:56:48;4.60;99.90
22974;DHT22;11653;50.848;4.584;2023-02-08T09:59:22;4.70;99.90
22974;DHT22;11653;50.848;4.584;2023-02-08T10:01:55;4.90;99.90
22974;DHT22;11653;50.848;4.584;2023-02-08T10:04:40;4.90;99.90
22974;DHT22;11653;50.848;4.584;2023-02-08T10:07:10;5.10;99.90
22974;DHT22;11653;50.848;4.584;2023-02-08T10:09:36;5.30;99.90
22974;DHT22;11653;50.848;4.584;2023-02-08T10:17:51;5.40;99.90
22974;DHT22;11653;50.848;4.584;2023-02-08T10:20:44;5.20;99.90
22974;DHT22;11653;50.848;4.584;2023-02-08T10:26:12;7.10;99.90
22974;DHT22;11653;50.848;4.584;2023-02-08T10:29:04;8.30;97.10
22974;DHT22;11653;50.848;4.584;2023-02-08T10:34:44;10.60;92.10
22974;DHT22;11653;50.848;4.584;2023-02-08T10:39:53;12.70;81.40
22974;DHT22;11653;50.848;4.584;2023-02-08T10:42:21;13.70;72.80
22974;DHT22;11653;50.848;4.584;2023-02-08T10:44:54;13.40;67.90
22974;DHT22;11653;50.848;4.584;2023-02-08T10:47:43;14.00;65.70
22974;DHT22;11653;50.848;4.584;2023-02-08T10:53:02;15.40;63.50
22974;DHT22;11653;50.848;4.584;2023-02-08T10:55:30;15.90;61.20
22974;DHT22;11653;50.848;4.584;2023-02-08T10:57:59;16.40;59.70
22974;DHT22;11653;50.848;4.584;2023-02-08T11:00:28;17.00;57.80
22974;DHT22;11653;50.848;4.584;2023-02-08T11:02:57;17.70;56.70
22974;DHT22;11653;50.848;4.584;2023-02-08T11:08:18;18.50;50.70
22974;DHT22;11653;50.848;4.584;2023-02-08T11:13:25;18.40;48.60
22974;DHT22;11653;50.848;4.584;2023-02-08T11:15:57;18.80;48.10
22974;DHT22;11653;50.848;4.584;2023-02-08T11:18:39;18.80;45.50
22974;DHT22;11653;50.848;4.584;2023-02-08T11:21:08;18.60;47.20
22974;DHT22;11653;50.848;4.584;2023-02-08T11:23:41;19.00;48.20
22974;DHT22;11653;50.848;4.584;2023-02-08T11:26:38;19.20;47.00
22974;DHT22;11653;50.848;4.584;2023-02-08T11:29:19;19.60;46.40
22974;DHT22;11653;50.848;4.584;2023-02-08T11:36:53;20.10;42.60
22974;DHT22;11653;50.848;4.584;2023-02-08T11:39:41;19.90;40.70
22974;DHT22;11653;50.848;4.584;2023-02-08T11:42:20;20.00;41.30
22974;DHT22;11653;50.848;4.584;2023-02-08T11:44:47;20.10;41.10
22974;DHT22;11653;50.848;4.584;2023-02-08T11:47:24;20.00;39.10
22974;DHT22;11653;50.848;4.584;2023-02-08T11:49:55;19.70;39.90
22974;DHT22;11653;50.848;4.584;2023-02-08T11:52:23;19.60;40.10
22974;DHT22;11653;50.848;4.584;2023-02-08T11:54:51;19.80;40.10
22974;DHT22;11653;50.848;4.584;2023-02-08T11:57:19;20.00;40.80
22974;DHT22;11653;50.848;4.584;2023-02-08T11:59:46;20.30;39.00
22974;DHT22;11653;50.848;4.584;2023-02-08T12:02:36;20.40;38.90
22974;DHT22;11653;50.848;4.584;2023-02-08T12:05:10;20.50;38.90
22974;DHT22;11653;50.848;4.584;2023-02-08T12:16:10;21.20;36.60
22974;DHT22;11653;50.848;4.584;2023-02-08T12:21:44;21.00;32.70
22974;DHT22;11653;50.848;4.584;2023-02-08T12:35:21;21.40;30.30
22974;DHT22;11653;50.848;4.584;2023-02-08T12:41:13;20.80;31.50
22974;DHT22;11653;50.848;4.584;2023-02-08T12:52:14;19.40;33.50
22974;DHT22;11653;50.848;4.584;2023-02-08T12:57:42;18.60;33.10
22974;DHT22;11653;50.848;4.584;2023-02-08T13:00:17;18.10;33.70
22974;DHT22;11653;50.848;4.584;2023-02-08T13:03:07;17.80;33.80
22974;DHT22;11653;50.848;4.584;2023-02-08T13:05:47;17.50;34.20
22974;DHT22;11653;50.848;4.584;2023-02-08T13:11:17;16.80;35.80
22974;DHT22;11653;50.848;4.584;2023-02-08T13:13:57;15.10;38.70
22974;DHT22;11653;50.848;4.584;2023-02-08T13:16:30;14.10;40.40
22974;DHT22;11653;50.848;4.584;2023-02-08T13:19:37;14.20;39.70
22974;DHT22;11653;50.848;4.584;2023-02-08T13:22:08;13.90;40.50
22974;DHT22;11653;50.848;4.584;2023-02-08T13:24:39;13.90;40.60
22974;DHT22;11653;50.848;4.584;2023-02-08T13:27:05;14.10;40.50
22974;DHT22;11653;50.848;4.584;2023-02-08T13:29:34;14.10;41.20
22974;DHT22;11653;50.848;4.584;2023-02-08T13:32:04;14.30;41.10
22974;DHT22;11653;50.848;4.584;2023-02-08T13:34:41;13.80;41.30
22974;DHT22;11653;50.848;4.584;2023-02-08T13:37:29;14.00;41.30
22974;DHT22;11653;50.848;4.584;2023-02-08T13:40:24;13.80;40.90
22974;DHT22;11653;50.848;4.584;2023-02-08T13:42:58;13.60;41.60
22974;DHT22;11653;50.848;4.584;2023-02-08T13:45:39;13.10;42.60
22974;DHT22;11653;50.848;4.584;2023-02-08T13:48:09;12.40;43.40
22974;DHT22;11653;50.848;4.584;2023-02-08T13:53:06;11.20;44.80
22974;DHT22;11653;50.848;4.584;2023-02-08T13:58:56;10.20;48.40
22974;DHT22;11653;50.848;4.584;2023-02-08T14:03:33;9.70;49.50
22974;DHT22;11653;50.848;4.584;2023-02-08T14:11:44;9.80;49.90
22974;DHT22;11653;50.848;4.584;2023-02-08T14:14:28;9.60;50.80
22974;DHT22;11653;50.848;4.584;2023-02-08T14:19:31;9.30;51.80
22974;DHT22;11653;50.848;4.584;2023-02-08T14:22:02;9.00;52.20
22974;DHT22;11653;50.848;4.584;2023-02-08T14:24:31;8.70;53.90
22974;DHT22;11653;50.848;4.584;2023-02-08T14:30:05;9.00;53.60
22974;DHT22;11653;50.848;4.584;2023-02-08T14:32:33;9.10;52.60
22974;DHT22;11653;50.848;4.584;2023-02-08T14:35:08;9.10;52.50
22974;DHT22;11653;50.848;4.584;2023-02-08T14:37:43;9.10;52.50
22974;DHT22;11653;50.848;4.584;2023-02-08T14:43:03;8.90;52.90
22974;DHT22;11653;50.848;4.584;2023-02-08T14:45:39;8.90;53.30
22974;DHT22;11653;50.848;4.584;2023-02-08T14:48:18;8.60;53.40
22974;DHT22;11653;50.848;4.584;2023-02-08T14:53:34;8.70;54.70
22974;DHT22;11653;50.848;4.584;2023-02-08T14:58:44;8.80;54.60
22974;DHT22;11653;50.848;4.584;2023-02-08T15:04:06;8.80;55.00
22974;DHT22;11653;50.848;4.584;2023-02-08T15:09:02;8.80;55.10
22974;DHT22;11653;50.848;4.584;2023-02-08T15:11:31;8.80;55.20
22974;DHT22;11653;50.848;4.584;2023-02-08T15:13:59;8.80;55.70
22974;DHT22;11653;50.848;4.584;2023-02-08T15:16:35;8.80;55.70
22974;DHT22;11653;50.848;4.584;2023-02-08T15:19:06;8.80;55.90
22974;DHT22;11653;50.848;4.584;2023-02-08T15:21:32;8.80;56.00
22974;DHT22;11653;50.848;4.584;2023-02-08T15:24:12;8.70;55.50
22974;DHT22;11653;50.848;4.584;2023-02-08T15:26:45;8.50;56.00
22974;DHT22;11653;50.848;4.584;2023-02-08T15:29:22;8.60;56.40
22974;DHT22;11653;50.848;4.584;2023-02-08T15:31:49;8.70;56.90
22974;DHT22;11653;50.848;4.584;2023-02-08T15:34:17;8.70;57.00
22974;DHT22;11653;50.848;4.584;2023-02-08T15:36:48;8.80;56.00
22974;DHT22;11653;50.848;4.584;2023-02-08T15:39:32;8.60;56.20
22974;DHT22;11653;50.848;4.584;2023-02-08T15:41:59;8.60;56.70
22974;DHT22;11653;50.848;4.584;2023-02-08T15:44:28;8.60;56.70
22974;DHT22;11653;50.848;4.584;2023-02-08T15:46:56;8.70;57.40
22974;DHT22;11653;50.848;4.584;2023-02-08T15:51:55;8.50;57.70
22974;DHT22;11653;50.848;4.584;2023-02-08T15:54:22;8.40;58.60
22974;DHT22;11653;50.848;4.584;2023-02-08T15:57:02;8.40;58.00
22974;DHT22;11653;50.848;4.584;2023-02-08T15:59:31;8.50;58.00
22974;DHT22;11653;50.848;4.584;2023-02-08T16:02:17;8.50;57.60
22974;DHT22;11653;50.848;4.584;2023-02-08T16:04:45;8.30;58.30
22974;DHT22;11653;50.848;4.584;2023-02-08T16:09:55;8.10;58.60
22974;DHT22;11653;50.848;4.584;2023-02-08T16:12:23;8.20;58.40
22974;DHT22;11653;50.848;4.584;2023-02-08T16:14:50;8.20;58.50
22974;DHT22;11653;50.848;4.584;2023-02-08T16:17:36;8.20;58.30
22974;DHT22;11653;50.848;4.584;2023-02-08T16:25:36;8.00;60.50
22974;DHT22;11653;50.848;4.584;2023-02-08T16:28:03;8.00;61.30
22974;DHT22;11653;50.848;4.584;2023-02-08T16:30:30;7.80;62.10
22974;DHT22;11653;50.848;4.584;2023-02-08T16:32:56;7.80;62.70
22974;DHT22;11653;50.848;4.584;2023-02-08T16:35:30;7.70;63.00
22974;DHT22;11653;50.848;4.584;2023-02-08T16:38:00;7.70;63.30
22974;DHT22;11653;50.848;4.584;2023-02-08T16:40:48;7.60;63.30
22974;DHT22;11653;50.848;4.584;2023-02-08T16:43:30;7.60;65.00
22974;DHT22;11653;50.848;4.584;2023-02-08T16:48:52;7.40;67.00
22974;DHT22;11653;50.848;4.584;2023-02-08T16:51:26;7.30;67.90
22974;DHT22;11653;50.848;4.584;2023-02-08T16:54:03;7.20;69.10
22974;DHT22;11653;50.848;4.584;2023-02-08T16:56:34;7.10;70.20
22974;DHT22;11653;50.848;4.584;2023-02-08T16:59:00;7.00;71.40
22974;DHT22;11653;50.848;4.584;2023-02-08T17:01:26;6.70;73.00
22974;DHT22;11653;50.848;4.584;2023-02-08T17:03:53;6.60;74.40
22974;DHT22;11653;50.848;4.584;2023-02-08T17:06:28;6.50;74.70
22974;DHT22;11653;50.848;4.584;2023-02-08T17:08:55;6.40;75.20
22974;DHT22;11653;50.848;4.584;2023-02-08T17:11:21;6.30;75.70
22974;DHT22;11653;50.848;4.584;2023-02-08T17:13:46;6.20;77.00
22974;DHT22;11653;50.848;4.584;2023-02-08T17:16:21;6.10;76.50
22974;DHT22;11653;50.848;4.584;2023-02-08T17:18:48;6.00;77.00
22974;DHT22;11653;50.848;4.584;2023-02-08T17:21:14;5.90;77.50
22974;DHT22;11653;50.848;4.584;2023-02-08T17:23:40;5.80;78.30
22974;DHT22;11653;50.848;4.584;2023-02-08T17:26:18;5.60;78.80
22974;DHT22;11653;50.848;4.584;2023-02-08T17:28:47;5.50;79.40
22974;DHT22;11653;50.848;4.584;2023-02-08T17:31:14;5.40;80.20
22974;DHT22;11653;50.848;4.584;2023-02-08T17:33:40;5.20;80.60
22974;DHT22;11653;50.848;4.584;2023-02-08T17:36:11;5.10;81.10
22974;DHT22;11653;50.848;4.584;2023-02-08T17:38:39;5.00;82.00
22974;DHT22;11653;50.848;4.584;2023-02-08T17:41:06;4.80;82.80
22974;DHT22;11653;50.848;4.584;2023-02-08T17:43:32;4.70;83.80
22974;DHT22;11653;50.848;4.584;2023-02-08T17:45:58;4.60;84.80
22974;DHT22;11653;50.848;4.584;2023-02-08T17:48:23;4.50;85.80
22974;DHT22;11653;50.848;4.584;2023-02-08T17:50:49;4.40;86.40
22974;DHT22;11653;50.848;4.584;2023-02-08T17:53:17;4.30;87.50
22974;DHT22;11653;50.848;4.584;2023-02-08T17:55:44;4.20;88.70
22974;DHT22;11653;50.848;4.584;2023-02-08T17:58:10;4.10;89.70
22974;DHT22;11653;50.848;4.584;2023-02-08T18:00:36;3.90;90.30
22974;DHT22;11653;50.848;4.584;2023-02-08T18:03:02;3.80;91.00
22974;DHT22;11653;50.848;4.584;2023-02-08T18:05:28;3.80;91.50
22974;DHT22;11653;50.848;4.584;2023-02-08T18:07:55;3.80;91.80
22974;DHT22;11653;50.848;4.584;2023-02-08T18:10:22;3.70;92.10
22974;DHT22;11653;50.848;4.584;2023-02-08T18:12:48;3.50;92.60
22974;DHT22;11653;50.848;4.584;2023-02-08T18:15:16;3.40;93.30
22974;DHT22;11653;50.848;4.584;2023-02-08T18:17:44;3.40;93.80
22974;DHT22;11653;50.848;4.584;2023-02-08T18:20:11;3.30;94.30
22974;DHT22;11653;50.848;4.584;2023-02-08T18:22:39;3.20;95.00
22974;DHT22;11653;50.848;4.584;2023-02-08T18:25:06;3.20;95.60
22974;DHT22;11653;50.848;4.584;2023-02-08T18:27:32;3.20;95.90
22974;DHT22;11653;50.848;4.584;2023-02-08T18:29:58;3.10;96.10
22974;DHT22;11653;50.848;4.584;2023-02-08T18:32:24;3.00;96.50
22974;DHT22;11653;50.848;4.584;2023-02-08T18:34:53;2.90;97.10
22974;DHT22;11653;50.848;4.584;2023-02-08T18:37:20;2.90;97.50